Spruce Pine, NC (28777)

9:13 PM EST on December 07, 2016 (GMT -0500)
APRSWXNET | | Change Station

Elev 3375 ft 35.85 °N, 82.10 °W | Updated 32 minutes ago

Overcast
Overcast
42 °F
Feels Like 42 °F
N
0
Wind Variable Wind from SW
Gusts 0.0 mph

Today
High -- | Low -- °F
--% Chance of Precip.
Yesterday
High -- | Low -- °F
Precip. -- in
Pressure 30.04 in
Visibility 10.0 miles
Clouds Overcast 1200 ft
Windchill 42 °F
Dew Point 40 °F
Humidity 93%
Rainfall in
Snow Depth Not available.
7:25 AM 5:14 PM
First Quarter, 58% visible
METAR KTNB 080155Z AUTO 00000KT 10SM OVC012 05/04 A3004 RMK AO2 T00510041
Pressure 30.04 in
Visibility 10.0 miles
Clouds Overcast 1200 ft
Windchill 42 °F
Dew Point 40 °F
Humidity 93%
Rainfall in
Snow Depth Not available.
7:25 AM 5:14 PM
First Quarter, 58% visible
METAR KTNB 080155Z AUTO 00000KT 10SM OVC012 05/04 A3004 RMK AO2 T00510041

10-Day Weather Forecast

Almanac

Astronomy

Dec. 07, 2016 Rise Set
Actual Time
Civil Twilight
Nautical Twilight
Astronomical Twilight
Moon
Length of Visible Light
Length of Day
Tomorrow will be .
, % of the Moon is Illuminated

Today's Extremes

State Highs State Lows

Community

WunderPhotos

Upload Photos

1,956,259 photos uploaded!

WunderBlog® & News

Nearby

Air Quality

  Air Quality AQ Index Pollutant
Not available.

Snow Depth

Station Depth Elevation

Earthquake Activity

City Distance Mag. Time & Date
Minimum magnitude displayed is 2.5.

Coastal Water Temperatures

Place Temperature

Stations

Nearby Weather Stations

Station Location Temp. Windchill Dew Point Humidity Wind Precip. Elev Updated Type
                   

Watches & Warnings

There are currently no watches in effect.